Terminal Aerodrome Forecast
Issued by NWS

Home | Current Version | Previous Version | Text Only | Print | Product List | Glossary On
Versions: 1 2 3 4 5 6 7 8 9 10 11 12 13 14 15
000
FTUS41 KBTV 020200 AAB
TAFSLK
TAF AMD
KSLK 020223Z 0202/0224 06006KT 5SM BR OVC003
     FM020300 00000KT 2SM BR BKN002
     FM020600 00000KT 1/2SM FG OVC001
     FM021300 00000KT 3SM BR BKN003
     FM021500 VRB03KT P6SM BKN040
     FM021800 19004KT P6SM SCT250=

USA.gov is the U.S. government's official web portal to all federal, state and local government web resources and services.